METAR AND TAF INFORMATION
METAR FOR SKPS
ADDS - METARS form results

(1747 UTC 20 October 2017)
Data provider http://aviationweather.gov/adds/metars/
 
METAR text: SKPS 201700Z 35006KT 9999 BKN025 24/17 A3009
Conditions at: SKPS (PASTO/ANTONIO NA, CO) observed 1700 UTC 20 October 2017
Temperature: 24.0°C (75°F)
Dewpoint: 17.0°C (63°F) [RH = 65%]
Pressure (altimeter): 30.09 inches Hg (1019.0 mb)
Winds: from the N (350 degrees) at 7 MPH (6 knots; 3.1 m/s)
Visibility: 6 or more miles (10+ km)
Ceiling: 2500 feet AGL
Clouds: broken clouds at 2500 feet AGL
Weather: no significant weather observed at this time

 AIRPORT MAP

 RUNWAY INFORMATION
Runway 02 Runway length 7585 ft Runway width 130 ft
Runway elevation 5840 ft Runway displaced threshold 200 ft Runway heading 16
Runway 20 Runway length 7585 ft Runway width 130 ft
Runway elevation 5840 ft Runway displaced threshold 170 ft Runway heading 196

 AIRPORT FREQUENCIES
Type RDO Name PASTO RDO Frequency 348.8 MHZ
Type TWR Name TWR Frequency 118 MHZ

 AIRPORT NEAR NAVIGATION AIDS
Type VOR-DME Name Pasto Frequency 113400 KHZ
Type NDB Name Pasto Frequency 264 KHZ



v2.6.1